createdAt,value
2018-06-15T00:04:29.131Z,7.40
2018-06-15T00:09:22.808Z,7.53
2018-06-15T00:14:16.040Z,6.20
2018-06-15T00:19:09.344Z,5.92
2018-06-15T00:24:02.579Z,5.80
2018-06-15T00:28:55.796Z,5.55
2018-06-15T00:33:49.040Z,5.20
2018-06-15T00:38:42.274Z,5.58
2018-06-15T00:43:35.520Z,5.67
2018-06-15T00:48:28.848Z,5.33
2018-06-15T00:53:22.081Z,5.50
2018-06-15T00:58:15.340Z,5.58
2018-06-15T01:03:08.643Z,6.17
2018-06-15T01:08:01.905Z,5.97
2018-06-15T01:12:55.133Z,5.97
2018-06-15T01:17:48.441Z,5.83
2018-06-15T01:22:41.747Z,6.10
2018-06-15T01:27:35.046Z,6.17
2018-06-15T01:32:28.416Z,6.30
2018-06-15T01:37:21.664Z,6.25
2018-06-15T01:42:14.998Z,6.50
2018-06-15T01:47:08.989Z,6.10
2018-06-15T01:52:02.210Z,5.80
2018-06-15T01:56:55.496Z,5.97
2018-06-15T02:01:48.813Z,7.37
2018-06-15T02:06:42.111Z,7.75
2018-06-15T02:11:35.360Z,8.03
2018-06-15T02:16:28.734Z,8.08
2018-06-15T02:21:22.018Z,8.07
2018-06-15T02:26:15.261Z,7.83
2018-06-15T02:31:08.543Z,7.43
2018-06-15T02:36:01.836Z,7.90
2018-06-15T02:40:55.087Z,7.57
2018-06-15T02:45:48.385Z,7.35
2018-06-15T02:50:41.676Z,7.17
2018-06-15T02:55:35.003Z,7.05
2018-06-15T03:00:28.274Z,7.40
2018-06-15T03:05:21.801Z,7.30
2018-06-15T03:10:15.142Z,7.17
2018-06-15T03:15:08.420Z,7.23
2018-06-15T03:20:01.685Z,7.72
2018-06-15T03:24:54.917Z,7.60
2018-06-15T03:29:48.175Z,7.70
2018-06-15T03:34:41.403Z,7.63
2018-06-15T03:39:34.768Z,7.90
2018-06-15T03:44:28.023Z,7.87
2018-06-15T03:49:21.259Z,7.65
2018-06-15T03:54:14.543Z,7.50
2018-06-15T03:59:07.783Z,8.53
2018-06-15T04:04:01.060Z,8.00
2018-06-15T04:08:54.310Z,7.85
2018-06-15T04:13:47.582Z,7.87
2018-06-15T04:18:40.967Z,7.65
2018-06-15T04:23:34.238Z,8.23
2018-06-15T04:28:27.461Z,8.38
2018-06-15T04:33:20.719Z,8.13
2018-06-15T04:38:13.988Z,8.33
2018-06-15T04:43:07.254Z,7.93
2018-06-15T04:48:00.502Z,8.18
2018-06-15T04:52:53.777Z,8.10
2018-06-15T04:57:47.168Z,7.65
2018-06-15T05:02:40.423Z,7.63
2018-06-15T05:07:33.681Z,8.63
2018-06-15T05:12:26.926Z,7.83
2018-06-15T05:17:20.298Z,9.35
2018-06-15T05:22:13.504Z,8.70
2018-06-15T05:27:06.774Z,8.30
2018-06-15T05:32:00.016Z,9.00
2018-06-15T05:36:53.297Z,9.35
2018-06-15T05:41:46.538Z,8.67
2018-06-15T05:46:39.776Z,9.03
2018-06-15T05:51:33.099Z,9.17
2018-06-15T05:56:27.124Z,8.80
2018-06-15T06:01:20.437Z,9.23
2018-06-15T06:06:14.035Z,8.80
2018-06-15T06:11:07.322Z,8.60
2018-06-15T06:16:00.656Z,8.80
2018-06-15T06:20:53.922Z,8.95
2018-06-15T06:25:47.155Z,9.30
2018-06-15T06:30:40.416Z,8.90
2018-06-15T06:35:33.744Z,8.50
2018-06-15T06:40:27.049Z,9.38
2018-06-15T06:45:20.343Z,9.10
2018-06-15T06:50:13.616Z,10.82
2018-06-15T06:55:06.884Z,10.63
2018-06-15T07:00:00.228Z,8.93
2018-06-15T07:04:53.769Z,10.00
2018-06-15T07:09:47.052Z,7.83
2018-06-15T07:14:40.706Z,7.57
2018-06-15T07:19:34.067Z,8.63
2018-06-15T07:24:27.361Z,7.27
2018-06-15T07:29:20.615Z,6.87
2018-06-15T07:34:13.872Z,7.33
2018-06-15T07:39:08.727Z,7.70
2018-06-15T07:44:02.015Z,7.27
2018-06-15T07:48:55.381Z,6.72
2018-06-15T07:53:48.662Z,6.23
2018-06-15T07:58:41.922Z,7.63
2018-06-15T08:03:35.277Z,6.77
2018-06-15T08:08:28.609Z,6.47
2018-06-15T08:13:21.847Z,7.55
2018-06-15T08:18:15.109Z,8.77
2018-06-15T08:23:08.356Z,7.17
2018-06-15T08:28:01.669Z,5.60
2018-06-15T08:32:54.980Z,6.08
2018-06-15T08:37:48.255Z,6.63
2018-06-15T08:42:41.547Z,6.37
2018-06-15T08:47:34.823Z,5.67
2018-06-15T08:52:28.123Z,4.70
2018-06-15T08:57:21.350Z,4.55
2018-06-15T09:02:14.581Z,5.60
2018-06-15T09:07:07.799Z,6.28
2018-06-15T09:12:01.049Z,6.50
2018-06-15T09:16:54.320Z,6.33
2018-06-15T09:21:47.602Z,5.77
2018-06-15T09:26:40.874Z,4.50
2018-06-15T09:31:34.147Z,5.10
2018-06-15T09:36:27.370Z,4.72
2018-06-15T09:41:20.616Z,4.90
2018-06-15T09:46:13.950Z,5.33
2018-06-15T09:51:07.223Z,5.60
2018-06-15T09:56:00.520Z,5.70
2018-06-15T10:00:59.459Z,5.53
2018-06-15T10:05:52.693Z,6.23
2018-06-15T10:10:46.022Z,5.87
2018-06-15T10:15:39.285Z,7.00
2018-06-15T10:20:33.068Z,6.25
2018-06-15T10:25:27.123Z,5.70
2018-06-15T10:30:23.157Z,5.60
2018-06-15T10:35:16.840Z,4.10
2018-06-15T10:40:10.103Z,4.60
2018-06-15T10:45:03.413Z,4.20
2018-06-15T10:49:56.710Z,4.37
2018-06-15T10:54:49.971Z,3.90
2018-06-15T10:59:43.228Z,3.90
2018-06-15T11:04:36.535Z,4.37
2018-06-15T11:09:29.906Z,3.47
2018-06-15T11:14:23.164Z,3.63
2018-06-15T11:19:16.425Z,3.90
2018-06-15T11:24:09.690Z,4.30
2018-06-15T11:29:02.959Z,3.80
2018-06-15T11:33:56.241Z,4.00
2018-06-15T11:38:49.520Z,4.03
2018-06-15T11:43:42.835Z,3.40
2018-06-15T11:48:36.084Z,3.92
2018-06-15T11:53:29.332Z,3.97
2018-06-15T11:58:22.596Z,2.95
2018-06-15T12:03:15.930Z,3.40
2018-06-15T12:08:09.183Z,3.58
2018-06-15T12:13:02.441Z,2.70
2018-06-15T12:17:55.710Z,1.82
2018-06-15T12:22:48.945Z,2.03
2018-06-15T12:27:42.205Z,2.50
2018-06-15T12:32:35.463Z,3.37
2018-06-15T12:37:28.861Z,2.60
2018-06-15T12:42:22.133Z,2.70
2018-06-15T12:47:15.356Z,3.08
2018-06-15T12:52:08.624Z,3.30
2018-06-15T12:57:01.966Z,2.80
2018-06-15T13:01:55.204Z,3.20
2018-06-15T13:06:48.471Z,3.05
2018-06-15T13:11:41.756Z,2.87
2018-06-15T13:16:35.255Z,2.60
2018-06-15T13:21:28.504Z,2.63
2018-06-15T13:26:21.901Z,2.60
2018-06-15T13:31:15.148Z,2.20
2018-06-15T13:36:08.518Z,1.90
2018-06-15T13:41:01.780Z,1.70
2018-06-15T13:45:55.048Z,1.97
2018-06-15T13:50:48.891Z,1.90
2018-06-15T13:55:42.142Z,1.80
2018-06-15T14:00:35.397Z,1.63
2018-06-15T14:05:28.716Z,1.90
2018-06-15T14:10:22.012Z,2.47
2018-06-15T14:15:15.405Z,1.80
2018-06-15T14:20:08.661Z,1.80
2018-06-15T14:25:01.991Z,2.30
2018-06-15T14:29:55.236Z,2.70
2018-06-15T14:34:48.487Z,2.53
2018-06-15T14:39:41.744Z,1.80
2018-06-15T14:44:35.036Z,2.92
2018-06-15T14:49:28.954Z,3.50
2018-06-15T14:54:22.200Z,3.60
2018-06-15T14:59:15.442Z,2.30
2018-06-15T15:04:08.688Z,4.03
2018-06-15T15:09:02.023Z,1.80
2018-06-15T15:13:58.770Z,2.42
2018-06-15T15:18:55.840Z,3.10
2018-06-15T15:23:52.758Z,2.60
2018-06-15T15:28:49.717Z,2.13
2018-06-15T15:33:47.197Z,2.50
2018-06-15T15:38:45.478Z,3.13
2018-06-15T15:43:41.778Z,3.07
2018-06-15T15:48:35.227Z,2.13
2018-06-15T15:53:32.682Z,2.10
2018-06-15T15:58:26.140Z,1.90
2018-06-15T16:03:19.463Z,1.93
2018-06-15T16:08:16.425Z,2.07
2018-06-15T16:13:13.848Z,2.53
2018-06-15T16:18:11.045Z,3.40
2018-06-15T16:23:04.772Z,2.23
2018-06-15T16:28:02.181Z,2.20
2018-06-15T16:32:59.288Z,3.10
2018-06-15T16:37:56.675Z,2.20
2018-06-15T16:42:50.055Z,2.10
2018-06-15T16:47:47.189Z,2.58
2018-06-15T16:52:40.509Z,2.20
2018-06-15T16:57:39.397Z,1.98
2018-06-15T17:02:32.716Z,2.33
2018-06-15T17:07:29.936Z,2.02
2018-06-15T17:12:28.032Z,2.60
2018-06-15T17:17:25.376Z,1.60
2018-06-15T17:22:22.806Z,3.03
2018-06-15T17:27:16.126Z,1.80
2018-06-15T17:32:09.379Z,2.52
2018-06-15T17:37:03.573Z,2.53
2018-06-15T17:41:57.090Z,2.80
2018-06-15T17:46:50.372Z,2.53
2018-06-15T17:51:43.618Z,2.63
2018-06-15T17:56:36.981Z,1.90
2018-06-15T18:01:30.526Z,2.43
2018-06-15T18:06:23.780Z,2.60
2018-06-15T18:11:17.098Z,2.90
2018-06-15T18:16:10.354Z,2.80
2018-06-15T18:21:03.814Z,2.60
2018-06-15T18:25:57.137Z,2.60
2018-06-15T18:30:50.375Z,2.85
2018-06-15T18:35:43.677Z,2.80
2018-06-15T18:40:36.952Z,3.55
2018-06-15T18:45:30.251Z,3.00
2018-06-15T18:50:23.552Z,3.10
2018-06-15T18:55:16.813Z,2.77
2018-06-15T19:00:10.055Z,2.85
2018-06-15T19:05:03.398Z,3.00
2018-06-15T19:09:56.650Z,2.77
2018-06-15T19:14:49.936Z,2.67
2018-06-15T19:19:43.231Z,2.70
2018-06-15T19:24:36.493Z,3.73
2018-06-15T19:29:29.749Z,2.47
2018-06-15T19:34:29.576Z,2.85
2018-06-15T19:39:22.807Z,3.20
2018-06-15T19:44:16.071Z,4.08
2018-06-15T19:49:09.348Z,2.90
2018-06-15T19:54:03.418Z,2.90
2018-06-15T19:58:56.725Z,3.37
2018-06-15T20:03:49.930Z,3.60
2018-06-15T20:08:43.168Z,3.00
2018-06-15T20:13:40.386Z,3.08
2018-06-15T20:18:37.992Z,3.50
2018-06-15T20:23:34.896Z,3.47
2018-06-15T20:28:32.323Z,3.70
2018-06-15T20:33:25.647Z,3.40
2018-06-15T20:38:22.738Z,3.72
2018-06-15T20:43:16.201Z,4.27
2018-06-15T20:48:12.945Z,4.03
2018-06-15T20:53:09.899Z,8.27
2018-06-15T20:58:07.958Z,4.47
2018-06-15T21:03:01.526Z,5.90
2018-06-15T21:07:59.190Z,8.00
2018-06-15T21:12:52.473Z,5.43
2018-06-15T21:17:45.768Z,7.95
2018-06-15T21:22:39.035Z,5.17
2018-06-15T21:27:32.297Z,4.75
2018-06-15T21:32:25.518Z,6.53
2018-06-15T21:37:18.783Z,6.25
2018-06-15T21:42:12.017Z,5.57
2018-06-15T21:47:05.432Z,4.50
2018-06-15T21:51:58.721Z,3.93
2018-06-15T21:56:51.958Z,4.90
2018-06-15T22:01:45.197Z,4.40
2018-06-15T22:06:38.497Z,5.20
2018-06-15T22:11:31.877Z,4.93
2018-06-15T22:16:25.355Z,4.72
2018-06-15T22:21:18.682Z,4.40
2018-06-15T22:26:12.071Z,5.40
2018-06-15T22:31:05.518Z,4.80
2018-06-15T22:35:58.910Z,5.10
2018-06-15T22:40:52.240Z,4.47
2018-06-15T22:45:45.526Z,5.03
2018-06-15T22:50:38.785Z,5.37
2018-06-15T22:55:32.048Z,5.57
2018-06-15T23:00:25.947Z,4.90
2018-06-15T23:05:19.234Z,5.60
2018-06-15T23:10:12.502Z,5.72
2018-06-15T23:15:06.367Z,7.10
2018-06-15T23:19:59.646Z,6.20
2018-06-15T23:24:52.934Z,5.60
2018-06-15T23:29:46.375Z,5.60
2018-06-15T23:34:39.638Z,4.97
2018-06-15T23:39:32.930Z,4.45
2018-06-15T23:44:26.179Z,4.67
2018-06-15T23:49:19.446Z,5.55
2018-06-15T23:54:12.698Z,5.23
2018-06-15T23:59:06.363Z,4.10
